sensor_id;sensor_type;location;lat;lon;timestamp;P1;durP1;ratioP1;P2;durP2;ratioP2
65275;SDS011;51875;49.994;14.052;2023-04-24T00:01:09;6.15;;;4.22;;
65275;SDS011;51875;49.994;14.052;2023-04-24T00:02:25;6.05;;;4.30;;
65275;SDS011;51875;49.994;14.052;2023-04-24T00:03:41;6.93;;;4.15;;
65275;SDS011;51875;49.994;14.052;2023-04-24T00:04:56;6.00;;;4.03;;
65275;SDS011;51875;49.994;14.052;2023-04-24T00:06:12;6.60;;;3.78;;
65275;SDS011;51875;49.994;14.052;2023-04-24T00:07:30;6.45;;;4.00;;
65275;SDS011;51875;49.994;14.052;2023-04-24T00:08:46;8.13;;;3.40;;
65275;SDS011;51875;49.994;14.052;2023-04-24T00:10:01;4.38;;;3.40;;
65275;SDS011;51875;49.994;14.052;2023-04-24T00:11:17;5.03;;;3.80;;
65275;SDS011;51875;49.994;14.052;2023-04-24T00:12:33;5.65;;;3.53;;
65275;SDS011;51875;49.994;14.052;2023-04-24T00:13:49;6.22;;;3.88;;
65275;SDS011;51875;49.994;14.052;2023-04-24T00:15:05;6.88;;;3.92;;
65275;SDS011;51875;49.994;14.052;2023-04-24T00:16:21;6.60;;;3.33;;
65275;SDS011;51875;49.994;14.052;2023-04-24T00:17:36;7.07;;;4.53;;
65275;SDS011;51875;49.994;14.052;2023-04-24T00:18:52;6.53;;;3.78;;
65275;SDS011;51875;49.994;14.052;2023-04-24T00:20:08;6.05;;;4.20;;
65275;SDS011;51875;49.994;14.052;2023-04-24T00:21:25;6.07;;;4.30;;
65275;SDS011;51875;49.994;14.052;2023-04-24T00:22:41;7.22;;;4.88;;
65275;SDS011;51875;49.994;14.052;2023-04-24T00:23:57;7.90;;;4.93;;
65275;SDS011;51875;49.994;14.052;2023-04-24T00:25:12;6.75;;;4.55;;
65275;SDS011;51875;49.994;14.052;2023-04-24T00:26:28;6.47;;;4.15;;
65275;SDS011;51875;49.994;14.052;2023-04-24T00:27:44;4.75;;;3.60;;
65275;SDS011;51875;49.994;14.052;2023-04-24T00:28:59;5.80;;;3.40;;
65275;SDS011;51875;49.994;14.052;2023-04-24T00:30:14;4.35;;;3.13;;
65275;SDS011;51875;49.994;14.052;2023-04-24T00:31:30;3.97;;;2.60;;
65275;SDS011;51875;49.994;14.052;2023-04-24T00:32:46;4.53;;;3.20;;
65275;SDS011;51875;49.994;14.052;2023-04-24T00:34:02;5.45;;;3.33;;
65275;SDS011;51875;49.994;14.052;2023-04-24T00:35:18;4.38;;;2.78;;
65275;SDS011;51875;49.994;14.052;2023-04-24T00:36:35;5.53;;;3.20;;
65275;SDS011;51875;49.994;14.052;2023-04-24T00:37:50;7.13;;;4.55;;
65275;SDS011;51875;49.994;14.052;2023-04-24T00:39:06;7.90;;;4.68;;
65275;SDS011;51875;49.994;14.052;2023-04-24T00:40:24;11.32;;;4.97;;
65275;SDS011;51875;49.994;14.052;2023-04-24T00:41:39;6.65;;;4.03;;
65275;SDS011;51875;49.994;14.052;2023-04-24T00:42:55;8.77;;;4.47;;
65275;SDS011;51875;49.994;14.052;2023-04-24T00:44:11;6.45;;;4.32;;
65275;SDS011;51875;49.994;14.052;2023-04-24T00:45:27;4.95;;;3.17;;
65275;SDS011;51875;49.994;14.052;2023-04-24T00:46:42;4.07;;;2.50;;
65275;SDS011;51875;49.994;14.052;2023-04-24T00:47:58;6.00;;;2.85;;
65275;SDS011;51875;49.994;14.052;2023-04-24T00:49:15;4.60;;;2.60;;
65275;SDS011;51875;49.994;14.052;2023-04-24T00:50:31;3.58;;;2.28;;
65275;SDS011;51875;49.994;14.052;2023-04-24T00:51:47;3.05;;;1.60;;
65275;SDS011;51875;49.994;14.052;2023-04-24T00:53:04;3.95;;;2.33;;
65275;SDS011;51875;49.994;14.052;2023-04-24T00:54:19;4.72;;;2.13;;
65275;SDS011;51875;49.994;14.052;2023-04-24T00:55:35;6.30;;;2.03;;
65275;SDS011;51875;49.994;14.052;2023-04-24T00:56:52;2.78;;;1.77;;
65275;SDS011;51875;49.994;14.052;2023-04-24T00:58:07;2.00;;;1.50;;
65275;SDS011;51875;49.994;14.052;2023-04-24T00:59:23;2.95;;;1.60;;
65275;SDS011;51875;49.994;14.052;2023-04-24T01:00:39;2.90;;;1.40;;
65275;SDS011;51875;49.994;14.052;2023-04-24T01:01:56;6.28;;;1.55;;
65275;SDS011;51875;49.994;14.052;2023-04-24T01:03:13;2.50;;;1.50;;
65275;SDS011;51875;49.994;14.052;2023-04-24T01:04:29;3.53;;;1.50;;
65275;SDS011;51875;49.994;14.052;2023-04-24T01:05:46;2.03;;;1.45;;
65275;SDS011;51875;49.994;14.052;2023-04-24T01:07:03;1.85;;;1.30;;
65275;SDS011;51875;49.994;14.052;2023-04-24T01:08:24;2.83;;;1.20;;
65275;SDS011;51875;49.994;14.052;2023-04-24T01:09:43;4.03;;;1.30;;
65275;SDS011;51875;49.994;14.052;2023-04-24T01:11:03;1.58;;;1.20;;
65275;SDS011;51875;49.994;14.052;2023-04-24T01:12:20;2.00;;;1.15;;
65275;SDS011;51875;49.994;14.052;2023-04-24T01:13:35;2.35;;;1.08;;
65275;SDS011;51875;49.994;14.052;2023-04-24T01:14:51;2.72;;;1.15;;
65275;SDS011;51875;49.994;14.052;2023-04-24T01:16:06;2.20;;;1.13;;
65275;SDS011;51875;49.994;14.052;2023-04-24T01:17:22;2.25;;;1.05;;
65275;SDS011;51875;49.994;14.052;2023-04-24T01:18:39;1.05;;;0.95;;
65275;SDS011;51875;49.994;14.052;2023-04-24T01:19:56;1.00;;;0.80;;
65275;SDS011;51875;49.994;14.052;2023-04-24T01:21:15;1.60;;;0.98;;
65275;SDS011;51875;49.994;14.052;2023-04-24T01:22:34;1.17;;;1.00;;
65275;SDS011;51875;49.994;14.052;2023-04-24T01:23:50;2.53;;;1.20;;
65275;SDS011;51875;49.994;14.052;2023-04-24T01:25:06;2.38;;;1.20;;
65275;SDS011;51875;49.994;14.052;2023-04-24T01:26:22;2.25;;;1.00;;
65275;SDS011;51875;49.994;14.052;2023-04-24T01:27:38;2.35;;;1.13;;
65275;SDS011;51875;49.994;14.052;2023-04-24T01:28:53;0.90;;;0.73;;
65275;SDS011;51875;49.994;14.052;2023-04-24T01:30:10;1.58;;;1.17;;
65275;SDS011;51875;49.994;14.052;2023-04-24T01:31:26;1.50;;;0.98;;
65275;SDS011;51875;49.994;14.052;2023-04-24T01:32:42;1.08;;;0.80;;
65275;SDS011;51875;49.994;14.052;2023-04-24T01:34:02;1.35;;;1.13;;
65275;SDS011;51875;49.994;14.052;2023-04-24T01:35:18;1.35;;;0.88;;
65275;SDS011;51875;49.994;14.052;2023-04-24T01:36:34;2.17;;;1.20;;
65275;SDS011;51875;49.994;14.052;2023-04-24T01:37:51;2.85;;;1.20;;
65275;SDS011;51875;49.994;14.052;2023-04-24T01:39:06;1.85;;;1.20;;
65275;SDS011;51875;49.994;14.052;2023-04-24T01:40:22;1.67;;;1.00;;
65275;SDS011;51875;49.994;14.052;2023-04-24T01:41:38;2.45;;;1.10;;
65275;SDS011;51875;49.994;14.052;2023-04-24T01:42:54;1.55;;;1.15;;
65275;SDS011;51875;49.994;14.052;2023-04-24T01:44:09;3.00;;;1.20;;
65275;SDS011;51875;49.994;14.052;2023-04-24T01:45:25;1.95;;;1.67;;
65275;SDS011;51875;49.994;14.052;2023-04-24T01:46:40;2.10;;;1.50;;
65275;SDS011;51875;49.994;14.052;2023-04-24T01:47:56;2.75;;;1.65;;
65275;SDS011;51875;49.994;14.052;2023-04-24T01:49:12;3.20;;;1.55;;
65275;SDS011;51875;49.994;14.052;2023-04-24T01:50:28;2.20;;;1.50;;
65275;SDS011;51875;49.994;14.052;2023-04-24T01:51:43;2.50;;;1.77;;
65275;SDS011;51875;49.994;14.052;2023-04-24T01:52:59;2.78;;;1.92;;
65275;SDS011;51875;49.994;14.052;2023-04-24T01:54:15;2.70;;;1.70;;
65275;SDS011;51875;49.994;14.052;2023-04-24T01:55:32;4.40;;;1.55;;
65275;SDS011;51875;49.994;14.052;2023-04-24T01:56:48;3.10;;;1.50;;
65275;SDS011;51875;49.994;14.052;2023-04-24T01:58:04;2.45;;;1.65;;
65275;SDS011;51875;49.994;14.052;2023-04-24T01:59:19;2.25;;;1.50;;
65275;SDS011;51875;49.994;14.052;2023-04-24T02:00:36;2.70;;;1.45;;
65275;SDS011;51875;49.994;14.052;2023-04-24T02:01:51;1.75;;;1.40;;
65275;SDS011;51875;49.994;14.052;2023-04-24T02:03:07;3.35;;;1.60;;
65275;SDS011;51875;49.994;14.052;2023-04-24T02:04:23;2.22;;;1.52;;
65275;SDS011;51875;49.994;14.052;2023-04-24T02:05:38;2.40;;;1.60;;
65275;SDS011;51875;49.994;14.052;2023-04-24T02:06:54;2.40;;;1.90;;
65275;SDS011;51875;49.994;14.052;2023-04-24T02:08:10;4.35;;;1.27;;
65275;SDS011;51875;49.994;14.052;2023-04-24T02:09:25;2.47;;;1.42;;
65275;SDS011;51875;49.994;14.052;2023-04-24T02:10:41;2.15;;;1.23;;
65275;SDS011;51875;49.994;14.052;2023-04-24T02:11:57;1.38;;;1.15;;
65275;SDS011;51875;49.994;14.052;2023-04-24T02:13:12;2.35;;;1.48;;
65275;SDS011;51875;49.994;14.052;2023-04-24T02:14:28;3.00;;;1.58;;
65275;SDS011;51875;49.994;14.052;2023-04-24T02:15:43;1.58;;;1.40;;
65275;SDS011;51875;49.994;14.052;2023-04-24T02:16:59;4.03;;;1.70;;
65275;SDS011;51875;49.994;14.052;2023-04-24T02:18:15;2.60;;;1.73;;
65275;SDS011;51875;49.994;14.052;2023-04-24T02:19:32;3.45;;;1.73;;
65275;SDS011;51875;49.994;14.052;2023-04-24T02:20:47;3.30;;;2.00;;
65275;SDS011;51875;49.994;14.052;2023-04-24T02:22:03;4.03;;;1.90;;
65275;SDS011;51875;49.994;14.052;2023-04-24T02:23:19;2.55;;;1.70;;
65275;SDS011;51875;49.994;14.052;2023-04-24T02:24:34;2.03;;;1.80;;
65275;SDS011;51875;49.994;14.052;2023-04-24T02:25:50;2.45;;;1.70;;
65275;SDS011;51875;49.994;14.052;2023-04-24T02:27:05;2.70;;;1.73;;
65275;SDS011;51875;49.994;14.052;2023-04-24T02:28:21;2.85;;;1.80;;
65275;SDS011;51875;49.994;14.052;2023-04-24T02:29:36;3.38;;;1.67;;
65275;SDS011;51875;49.994;14.052;2023-04-24T02:30:52;2.17;;;1.63;;
65275;SDS011;51875;49.994;14.052;2023-04-24T02:32:08;2.90;;;1.67;;
65275;SDS011;51875;49.994;14.052;2023-04-24T02:33:26;2.03;;;1.73;;
65275;SDS011;51875;49.994;14.052;2023-04-24T02:34:42;2.88;;;1.88;;
65275;SDS011;51875;49.994;14.052;2023-04-24T02:35:58;2.50;;;1.77;;
65275;SDS011;51875;49.994;14.052;2023-04-24T02:37:14;2.15;;;1.90;;
65275;SDS011;51875;49.994;14.052;2023-04-24T02:38:30;2.10;;;1.60;;
65275;SDS011;51875;49.994;14.052;2023-04-24T02:39:46;2.22;;;1.58;;
65275;SDS011;51875;49.994;14.052;2023-04-24T02:41:01;2.47;;;1.80;;
65275;SDS011;51875;49.994;14.052;2023-04-24T02:42:19;3.15;;;1.70;;
65275;SDS011;51875;49.994;14.052;2023-04-24T02:43:34;3.67;;;1.67;;
65275;SDS011;51875;49.994;14.052;2023-04-24T02:44:50;3.75;;;1.70;;
65275;SDS011;51875;49.994;14.052;2023-04-24T02:46:06;3.50;;;1.90;;
65275;SDS011;51875;49.994;14.052;2023-04-24T02:47:22;2.10;;;1.80;;
65275;SDS011;51875;49.994;14.052;2023-04-24T02:48:37;2.22;;;1.73;;
65275;SDS011;51875;49.994;14.052;2023-04-24T02:49:53;2.22;;;1.73;;
65275;SDS011;51875;49.994;14.052;2023-04-24T02:51:09;2.72;;;1.73;;
65275;SDS011;51875;49.994;14.052;2023-04-24T02:52:24;2.97;;;2.10;;
65275;SDS011;51875;49.994;14.052;2023-04-24T02:53:40;2.65;;;1.90;;
65275;SDS011;51875;49.994;14.052;2023-04-24T02:54:56;2.65;;;1.90;;
65275;SDS011;51875;49.994;14.052;2023-04-24T02:56:11;3.33;;;1.90;;
65275;SDS011;51875;49.994;14.052;2023-04-24T02:57:30;3.25;;;2.20;;
65275;SDS011;51875;49.994;14.052;2023-04-24T02:58:45;2.33;;;1.73;;
65275;SDS011;51875;49.994;14.052;2023-04-24T03:00:01;3.63;;;2.55;;
65275;SDS011;51875;49.994;14.052;2023-04-24T03:01:16;3.00;;;1.98;;
65275;SDS011;51875;49.994;14.052;2023-04-24T03:02:32;2.50;;;1.70;;
65275;SDS011;51875;49.994;14.052;2023-04-24T03:03:49;3.83;;;1.77;;
65275;SDS011;51875;49.994;14.052;2023-04-24T03:05:06;2.40;;;1.85;;
65275;SDS011;51875;49.994;14.052;2023-04-24T03:06:22;2.67;;;1.92;;
65275;SDS011;51875;49.994;14.052;2023-04-24T03:07:38;3.05;;;2.10;;
65275;SDS011;51875;49.994;14.052;2023-04-24T03:08:53;2.42;;;1.92;;
65275;SDS011;51875;49.994;14.052;2023-04-24T03:10:09;6.00;;;2.17;;
65275;SDS011;51875;49.994;14.052;2023-04-24T03:11:25;4.20;;;2.15;;
65275;SDS011;51875;49.994;14.052;2023-04-24T03:12:41;4.53;;;2.70;;
65275;SDS011;51875;49.994;14.052;2023-04-24T03:13:56;4.50;;;2.90;;
65275;SDS011;51875;49.994;14.052;2023-04-24T03:15:12;5.70;;;2.95;;
65275;SDS011;51875;49.994;14.052;2023-04-24T03:16:27;7.85;;;2.90;;
65275;SDS011;51875;49.994;14.052;2023-04-24T03:17:43;2.92;;;1.92;;
65275;SDS011;51875;49.994;14.052;2023-04-24T03:18:58;4.82;;;2.08;;
65275;SDS011;51875;49.994;14.052;2023-04-24T03:20:15;4.10;;;2.20;;
65275;SDS011;51875;49.994;14.052;2023-04-24T03:21:31;3.67;;;2.10;;
65275;SDS011;51875;49.994;14.052;2023-04-24T03:22:46;2.92;;;1.90;;
65275;SDS011;51875;49.994;14.052;2023-04-24T03:24:02;3.33;;;1.95;;
65275;SDS011;51875;49.994;14.052;2023-04-24T03:25:19;2.78;;;2.10;;
65275;SDS011;51875;49.994;14.052;2023-04-24T03:26:34;4.22;;;2.10;;
65275;SDS011;51875;49.994;14.052;2023-04-24T03:27:50;3.78;;;2.20;;
65275;SDS011;51875;49.994;14.052;2023-04-24T03:29:06;2.17;;;1.98;;
65275;SDS011;51875;49.994;14.052;2023-04-24T03:30:21;3.75;;;2.20;;
65275;SDS011;51875;49.994;14.052;2023-04-24T03:31:41;6.47;;;2.25;;
65275;SDS011;51875;49.994;14.052;2023-04-24T03:32:56;2.90;;;2.10;;
65275;SDS011;51875;49.994;14.052;2023-04-24T03:34:12;3.97;;;2.22;;
65275;SDS011;51875;49.994;14.052;2023-04-24T03:35:28;2.42;;;1.88;;
65275;SDS011;51875;49.994;14.052;2023-04-24T03:36:44;2.70;;;2.00;;
65275;SDS011;51875;49.994;14.052;2023-04-24T03:38:02;2.25;;;1.98;;
65275;SDS011;51875;49.994;14.052;2023-04-24T03:39:19;5.88;;;2.90;;
65275;SDS011;51875;49.994;14.052;2023-04-24T03:40:35;3.00;;;2.33;;
65275;SDS011;51875;49.994;14.052;2023-04-24T03:41:50;4.75;;;2.10;;
65275;SDS011;51875;49.994;14.052;2023-04-24T03:43:06;2.33;;;2.00;;
65275;SDS011;51875;49.994;14.052;2023-04-24T03:44:22;2.55;;;1.85;;
65275;SDS011;51875;49.994;14.052;2023-04-24T03:45:37;3.03;;;1.88;;
65275;SDS011;51875;49.994;14.052;2023-04-24T03:46:54;2.97;;;2.20;;
65275;SDS011;51875;49.994;14.052;2023-04-24T03:48:10;3.92;;;2.30;;
65275;SDS011;51875;49.994;14.052;2023-04-24T03:49:26;4.68;;;2.70;;
65275;SDS011;51875;49.994;14.052;2023-04-24T03:50:41;3.45;;;2.17;;
65275;SDS011;51875;49.994;14.052;2023-04-24T03:51:57;2.65;;;2.13;;
65275;SDS011;51875;49.994;14.052;2023-04-24T03:53:12;5.07;;;2.80;;
65275;SDS011;51875;49.994;14.052;2023-04-24T03:54:28;4.03;;;2.35;;
65275;SDS011;51875;49.994;14.052;2023-04-24T03:55:44;4.15;;;2.40;;
65275;SDS011;51875;49.994;14.052;2023-04-24T03:56:59;3.65;;;2.67;;
65275;SDS011;51875;49.994;14.052;2023-04-24T03:58:16;4.70;;;2.75;;
65275;SDS011;51875;49.994;14.052;2023-04-24T03:59:32;2.60;;;2.38;;
65275;SDS011;51875;49.994;14.052;2023-04-24T04:00:48;3.05;;;2.42;;
65275;SDS011;51875;49.994;14.052;2023-04-24T04:02:05;4.65;;;2.72;;
65275;SDS011;51875;49.994;14.052;2023-04-24T04:03:20;3.33;;;2.53;;
65275;SDS011;51875;49.994;14.052;2023-04-24T04:04:36;3.47;;;2.75;;
65275;SDS011;51875;49.994;14.052;2023-04-24T04:05:52;3.30;;;2.63;;
65275;SDS011;51875;49.994;14.052;2023-04-24T04:07:08;4.47;;;2.60;;
65275;SDS011;51875;49.994;14.052;2023-04-24T04:08:23;3.95;;;2.55;;
65275;SDS011;51875;49.994;14.052;2023-04-24T04:09:39;3.22;;;2.42;;
65275;SDS011;51875;49.994;14.052;2023-04-24T04:10:56;5.55;;;2.63;;
65275;SDS011;51875;49.994;14.052;2023-04-24T04:12:11;5.15;;;2.42;;
65275;SDS011;51875;49.994;14.052;2023-04-24T04:13:28;3.65;;;2.20;;
65275;SDS011;51875;49.994;14.052;2023-04-24T04:14:43;4.72;;;2.60;;
65275;SDS011;51875;49.994;14.052;2023-04-24T04:15:59;3.67;;;2.50;;
65275;SDS011;51875;49.994;14.052;2023-04-24T04:17:14;3.47;;;2.60;;
65275;SDS011;51875;49.994;14.052;2023-04-24T04:18:30;3.63;;;2.28;;
65275;SDS011;51875;49.994;14.052;2023-04-24T04:19:45;3.53;;;2.50;;
65275;SDS011;51875;49.994;14.052;2023-04-24T04:21:01;4.05;;;2.40;;
65275;SDS011;51875;49.994;14.052;2023-04-24T04:22:17;5.70;;;2.42;;
65275;SDS011;51875;49.994;14.052;2023-04-24T04:23:32;4.10;;;2.40;;
65275;SDS011;51875;49.994;14.052;2023-04-24T04:24:48;4.47;;;2.80;;
65275;SDS011;51875;49.994;14.052;2023-04-24T04:26:05;4.88;;;2.38;;
65275;SDS011;51875;49.994;14.052;2023-04-24T04:27:21;2.83;;;2.47;;
65275;SDS011;51875;49.994;14.052;2023-04-24T04:28:37;3.00;;;2.40;;
65275;SDS011;51875;49.994;14.052;2023-04-24T04:29:54;3.65;;;2.35;;
65275;SDS011;51875;49.994;14.052;2023-04-24T04:31:11;3.42;;;2.72;;
65275;SDS011;51875;49.994;14.052;2023-04-24T04:32:27;4.13;;;2.58;;
65275;SDS011;51875;49.994;14.052;2023-04-24T04:33:42;5.28;;;2.47;;
65275;SDS011;51875;49.994;14.052;2023-04-24T04:34:58;4.88;;;2.50;;
65275;SDS011;51875;49.994;14.052;2023-04-24T04:36:18;3.00;;;2.65;;
65275;SDS011;51875;49.994;14.052;2023-04-24T04:37:34;4.50;;;2.75;;
65275;SDS011;51875;49.994;14.052;2023-04-24T04:38:49;5.07;;;3.17;;
65275;SDS011;51875;49.994;14.052;2023-04-24T04:40:05;4.05;;;2.88;;
65275;SDS011;51875;49.994;14.052;2023-04-24T04:41:21;4.45;;;2.88;;
65275;SDS011;51875;49.994;14.052;2023-04-24T04:42:37;4.53;;;3.42;;
65275;SDS011;51875;49.994;14.052;2023-04-24T04:43:57;6.20;;;3.10;;
65275;SDS011;51875;49.994;14.052;2023-04-24T04:45:13;5.70;;;3.70;;
65275;SDS011;51875;49.994;14.052;2023-04-24T04:46:31;6.07;;;3.85;;
65275;SDS011;51875;49.994;14.052;2023-04-24T04:47:52;7.88;;;3.65;;
65275;SDS011;51875;49.994;14.052;2023-04-24T04:49:07;5.18;;;3.00;;
65275;SDS011;51875;49.994;14.052;2023-04-24T04:50:23;2.60;;;2.20;;
65275;SDS011;51875;49.994;14.052;2023-04-24T04:51:39;2.70;;;2.10;;
65275;SDS011;51875;49.994;14.052;2023-04-24T04:52:54;2.63;;;1.98;;
65275;SDS011;51875;49.994;14.052;2023-04-24T04:54:10;2.75;;;1.95;;
65275;SDS011;51875;49.994;14.052;2023-04-24T04:55:26;4.40;;;2.00;;
65275;SDS011;51875;49.994;14.052;2023-04-24T04:56:41;2.67;;;1.88;;
65275;SDS011;51875;49.994;14.052;2023-04-24T04:57:57;2.78;;;2.38;;
65275;SDS011;51875;49.994;14.052;2023-04-24T04:59:13;4.82;;;2.35;;
65275;SDS011;51875;49.994;14.052;2023-04-24T05:00:28;2.22;;;2.03;;
65275;SDS011;51875;49.994;14.052;2023-04-24T05:01:48;4.43;;;2.20;;
65275;SDS011;51875;49.994;14.052;2023-04-24T05:03:05;4.93;;;2.30;;
65275;SDS011;51875;49.994;14.052;2023-04-24T05:04:21;2.75;;;2.30;;
65275;SDS011;51875;49.994;14.052;2023-04-24T05:05:37;3.95;;;2.63;;
65275;SDS011;51875;49.994;14.052;2023-04-24T05:06:55;2.65;;;2.20;;
65275;SDS011;51875;49.994;14.052;2023-04-24T05:08:11;3.25;;;2.40;;
65275;SDS011;51875;49.994;14.052;2023-04-24T05:09:27;3.67;;;2.33;;
65275;SDS011;51875;49.994;14.052;2023-04-24T05:10:44;2.38;;;2.17;;
65275;SDS011;51875;49.994;14.052;2023-04-24T05:12:00;2.55;;;2.05;;
65275;SDS011;51875;49.994;14.052;2023-04-24T05:13:15;4.00;;;2.90;;
65275;SDS011;51875;49.994;14.052;2023-04-24T05:14:31;4.07;;;2.20;;
65275;SDS011;51875;49.994;14.052;2023-04-24T05:15:46;2.50;;;2.17;;
65275;SDS011;51875;49.994;14.052;2023-04-24T05:17:02;4.45;;;2.22;;
65275;SDS011;51875;49.994;14.052;2023-04-24T05:18:18;3.38;;;2.10;;
65275;SDS011;51875;49.994;14.052;2023-04-24T05:19:33;4.28;;;2.40;;
65275;SDS011;51875;49.994;14.052;2023-04-24T05:20:51;3.22;;;2.22;;
65275;SDS011;51875;49.994;14.052;2023-04-24T05:22:06;2.58;;;2.00;;
65275;SDS011;51875;49.994;14.052;2023-04-24T05:23:22;4.38;;;1.98;;
65275;SDS011;51875;49.994;14.052;2023-04-24T05:24:37;2.88;;;1.92;;
65275;SDS011;51875;49.994;14.052;2023-04-24T05:25:53;2.42;;;1.85;;
65275;SDS011;51875;49.994;14.052;2023-04-24T05:27:09;2.30;;;1.63;;
65275;SDS011;51875;49.994;14.052;2023-04-24T05:28:24;2.08;;;1.70;;
65275;SDS011;51875;49.994;14.052;2023-04-24T05:29:43;2.67;;;1.85;;
65275;SDS011;51875;49.994;14.052;2023-04-24T05:30:59;1.80;;;1.60;;
65275;SDS011;51875;49.994;14.052;2023-04-24T05:32:14;2.05;;;1.73;;
65275;SDS011;51875;49.994;14.052;2023-04-24T05:33:30;3.15;;;1.90;;
65275;SDS011;51875;49.994;14.052;2023-04-24T05:34:45;2.33;;;1.70;;
65275;SDS011;51875;49.994;14.052;2023-04-24T05:36:01;2.17;;;1.67;;
65275;SDS011;51875;49.994;14.052;2023-04-24T05:37:17;2.33;;;1.73;;
65275;SDS011;51875;49.994;14.052;2023-04-24T05:38:32;2.03;;;1.83;;
65275;SDS011;51875;49.994;14.052;2023-04-24T05:39:48;2.85;;;2.33;;
65275;SDS011;51875;49.994;14.052;2023-04-24T05:41:04;3.80;;;2.50;;
65275;SDS011;51875;49.994;14.052;2023-04-24T05:42:19;6.22;;;2.58;;
65275;SDS011;51875;49.994;14.052;2023-04-24T05:43:35;5.07;;;2.95;;
65275;SDS011;51875;49.994;14.052;2023-04-24T05:44:50;2.88;;;2.42;;
65275;SDS011;51875;49.994;14.052;2023-04-24T05:46:06;3.15;;;2.63;;
65275;SDS011;51875;49.994;14.052;2023-04-24T05:47:21;4.70;;;2.63;;
65275;SDS011;51875;49.994;14.052;2023-04-24T05:48:37;4.43;;;3.17;;
65275;SDS011;51875;49.994;14.052;2023-04-24T05:49:53;2.70;;;2.28;;
65275;SDS011;51875;49.994;14.052;2023-04-24T05:51:09;6.05;;;2.50;;
65275;SDS011;51875;49.994;14.052;2023-04-24T05:52:24;4.90;;;2.83;;
65275;SDS011;51875;49.994;14.052;2023-04-24T05:53:40;3.65;;;2.47;;
65275;SDS011;51875;49.994;14.052;2023-04-24T05:54:56;2.10;;;1.88;;
65275;SDS011;51875;49.994;14.052;2023-04-24T05:56:11;2.50;;;2.03;;
65275;SDS011;51875;49.994;14.052;2023-04-24T05:57:27;2.80;;;2.10;;
65275;SDS011;51875;49.994;14.052;2023-04-24T05:58:42;2.08;;;1.60;;
65275;SDS011;51875;49.994;14.052;2023-04-24T05:59:58;2.58;;;1.80;;
65275;SDS011;51875;49.994;14.052;2023-04-24T06:01:14;2.75;;;1.88;;
65275;SDS011;51875;49.994;14.052;2023-04-24T06:02:30;2.40;;;1.73;;
65275;SDS011;51875;49.994;14.052;2023-04-24T06:03:48;2.03;;;1.70;;
65275;SDS011;51875;49.994;14.052;2023-04-24T06:05:04;2.40;;;1.77;;
65275;SDS011;51875;49.994;14.052;2023-04-24T06:06:19;1.98;;;1.77;;
65275;SDS011;51875;49.994;14.052;2023-04-24T06:07:35;2.58;;;1.73;;
65275;SDS011;51875;49.994;14.052;2023-04-24T06:08:51;2.00;;;1.67;;
65275;SDS011;51875;49.994;14.052;2023-04-24T06:10:07;2.60;;;1.77;;
65275;SDS011;51875;49.994;14.052;2023-04-24T06:11:23;2.47;;;1.90;;
65275;SDS011;51875;49.994;14.052;2023-04-24T06:12:39;5.35;;;3.28;;
65275;SDS011;51875;49.994;14.052;2023-04-24T06:13:55;5.18;;;3.80;;
65275;SDS011;51875;49.994;14.052;2023-04-24T06:15:11;5.78;;;3.65;;
65275;SDS011;51875;49.994;14.052;2023-04-24T06:16:27;5.60;;;3.13;;
65275;SDS011;51875;49.994;14.052;2023-04-24T06:17:43;5.57;;;3.75;;
65275;SDS011;51875;49.994;14.052;2023-04-24T06:18:59;5.15;;;3.53;;
65275;SDS011;51875;49.994;14.052;2023-04-24T06:20:14;6.45;;;3.63;;
65275;SDS011;51875;49.994;14.052;2023-04-24T06:21:30;5.18;;;3.55;;
65275;SDS011;51875;49.994;14.052;2023-04-24T06:22:49;3.58;;;2.85;;
65275;SDS011;51875;49.994;14.052;2023-04-24T06:24:05;4.63;;;3.08;;
65275;SDS011;51875;49.994;14.052;2023-04-24T06:25:21;2.92;;;2.40;;
65275;SDS011;51875;49.994;14.052;2023-04-24T06:26:36;3.90;;;2.40;;
65275;SDS011;51875;49.994;14.052;2023-04-24T06:27:53;2.83;;;2.20;;
65275;SDS011;51875;49.994;14.052;2023-04-24T06:29:09;2.60;;;2.03;;
65275;SDS011;51875;49.994;14.052;2023-04-24T06:30:25;2.05;;;1.80;;
65275;SDS011;51875;49.994;14.052;2023-04-24T06:31:42;1.73;;;1.63;;
65275;SDS011;51875;49.994;14.052;2023-04-24T06:32:57;1.90;;;1.42;;
65275;SDS011;51875;49.994;14.052;2023-04-24T06:34:13;2.05;;;1.63;;
65275;SDS011;51875;49.994;14.052;2023-04-24T06:35:28;2.75;;;1.85;;
65275;SDS011;51875;49.994;14.052;2023-04-24T06:36:44;2.97;;;2.42;;
65275;SDS011;51875;49.994;14.052;2023-04-24T06:38:01;2.17;;;1.50;;
65275;SDS011;51875;49.994;14.052;2023-04-24T06:39:17;2.53;;;1.70;;
65275;SDS011;51875;49.994;14.052;2023-04-24T06:40:32;7.88;;;2.25;;
65275;SDS011;51875;49.994;14.052;2023-04-24T06:41:48;3.17;;;1.60;;
65275;SDS011;51875;49.994;14.052;2023-04-24T06:43:04;2.08;;;1.40;;
65275;SDS011;51875;49.994;14.052;2023-04-24T06:44:22;2.58;;;1.60;;
65275;SDS011;51875;49.994;14.052;2023-04-24T06:45:38;1.88;;;1.67;;
65275;SDS011;51875;49.994;14.052;2023-04-24T06:46:54;1.58;;;1.42;;
65275;SDS011;51875;49.994;14.052;2023-04-24T06:48:10;2.92;;;1.40;;
65275;SDS011;51875;49.994;14.052;2023-04-24T06:49:26;1.83;;;1.50;;
65275;SDS011;51875;49.994;14.052;2023-04-24T06:50:41;1.83;;;1.70;;
65275;SDS011;51875;49.994;14.052;2023-04-24T06:51:57;1.83;;;1.50;;
65275;SDS011;51875;49.994;14.052;2023-04-24T06:53:12;2.03;;;1.65;;
65275;SDS011;51875;49.994;14.052;2023-04-24T06:54:29;2.22;;;1.73;;
65275;SDS011;51875;49.994;14.052;2023-04-24T06:55:45;2.40;;;1.70;;
65275;SDS011;51875;49.994;14.052;2023-04-24T06:57:01;2.28;;;1.60;;
65275;SDS011;51875;49.994;14.052;2023-04-24T06:58:17;2.70;;;1.55;;
65275;SDS011;51875;49.994;14.052;2023-04-24T06:59:33;3.13;;;1.67;;
65275;SDS011;51875;49.994;14.052;2023-04-24T07:00:48;1.90;;;1.60;;
65275;SDS011;51875;49.994;14.052;2023-04-24T07:02:04;2.53;;;1.50;;
65275;SDS011;51875;49.994;14.052;2023-04-24T07:03:19;1.77;;;1.63;;
65275;SDS011;51875;49.994;14.052;2023-04-24T07:04:35;4.03;;;1.80;;
65275;SDS011;51875;49.994;14.052;2023-04-24T07:05:51;3.10;;;2.20;;
65275;SDS011;51875;49.994;14.052;2023-04-24T07:07:08;2.20;;;1.40;;
65275;SDS011;51875;49.994;14.052;2023-04-24T07:08:28;2.47;;;1.63;;
65275;SDS011;51875;49.994;14.052;2023-04-24T07:09:45;1.98;;;1.80;;
65275;SDS011;51875;49.994;14.052;2023-04-24T07:11:01;3.10;;;1.90;;
65275;SDS011;51875;49.994;14.052;2023-04-24T07:12:17;2.05;;;1.70;;
65275;SDS011;51875;49.994;14.052;2023-04-24T07:13:35;3.17;;;2.00;;
65275;SDS011;51875;49.994;14.052;2023-04-24T07:14:51;2.97;;;1.90;;
65275;SDS011;51875;49.994;14.052;2023-04-24T07:16:07;2.33;;;1.52;;
65275;SDS011;51875;49.994;14.052;2023-04-24T07:17:23;2.22;;;1.85;;
65275;SDS011;51875;49.994;14.052;2023-04-24T07:18:39;4.03;;;1.92;;
65275;SDS011;51875;49.994;14.052;2023-04-24T07:19:55;2.72;;;1.60;;
65275;SDS011;51875;49.994;14.052;2023-04-24T07:21:10;2.17;;;1.70;;
65275;SDS011;51875;49.994;14.052;2023-04-24T07:22:26;5.35;;;1.80;;
65275;SDS011;51875;49.994;14.052;2023-04-24T07:23:42;1.70;;;1.60;;
65275;SDS011;51875;49.994;14.052;2023-04-24T07:24:57;2.13;;;1.90;;
65275;SDS011;51875;49.994;14.052;2023-04-24T07:26:13;3.17;;;2.20;;
65275;SDS011;51875;49.994;14.052;2023-04-24T07:27:30;3.55;;;2.58;;
65275;SDS011;51875;49.994;14.052;2023-04-24T07:28:45;2.30;;;2.10;;
65275;SDS011;51875;49.994;14.052;2023-04-24T07:30:01;2.60;;;2.40;;
65275;SDS011;51875;49.994;14.052;2023-04-24T07:31:19;4.90;;;2.28;;